sensor_id;sensor_type;location;lat;lon;timestamp;temperature;humidity
6307;DHT22;3186;54.062;9.962;2023-05-18T00:00:08;10.20;7.20
6307;DHT22;3186;54.062;9.962;2023-05-18T00:02:41;10.20;7.70
6307;DHT22;3186;54.062;9.962;2023-05-18T00:05:07;10.20;8.00
6307;DHT22;3186;54.062;9.962;2023-05-18T00:07:35;10.20;8.30
6307;DHT22;3186;54.062;9.962;2023-05-18T00:10:02;10.10;8.60
6307;DHT22;3186;54.062;9.962;2023-05-18T00:12:28;10.10;8.20
6307;DHT22;3186;54.062;9.962;2023-05-18T00:14:54;10.10;8.30
6307;DHT22;3186;54.062;9.962;2023-05-18T00:17:19;10.00;8.90
6307;DHT22;3186;54.062;9.962;2023-05-18T00:19:46;10.00;8.80
6307;DHT22;3186;54.062;9.962;2023-05-18T00:22:12;10.00;9.00
6307;DHT22;3186;54.062;9.962;2023-05-18T00:24:46;9.90;10.00
6307;DHT22;3186;54.062;9.962;2023-05-18T00:27:13;9.90;9.80
6307;DHT22;3186;54.062;9.962;2023-05-18T00:29:39;9.90;9.50
6307;DHT22;3186;54.062;9.962;2023-05-18T00:32:05;9.80;9.80
6307;DHT22;3186;54.062;9.962;2023-05-18T00:34:31;9.80;9.30
6307;DHT22;3186;54.062;9.962;2023-05-18T00:36:57;9.70;9.70
6307;DHT22;3186;54.062;9.962;2023-05-18T00:39:22;9.70;10.00
6307;DHT22;3186;54.062;9.962;2023-05-18T00:41:48;9.70;9.70
6307;DHT22;3186;54.062;9.962;2023-05-18T00:44:14;9.70;10.10
6307;DHT22;3186;54.062;9.962;2023-05-18T00:46:40;9.60;10.20
6307;DHT22;3186;54.062;9.962;2023-05-18T00:49:09;9.60;10.60
6307;DHT22;3186;54.062;9.962;2023-05-18T00:51:36;9.50;11.20
6307;DHT22;3186;54.062;9.962;2023-05-18T00:54:03;9.50;10.90
6307;DHT22;3186;54.062;9.962;2023-05-18T00:56:30;9.40;11.00
6307;DHT22;3186;54.062;9.962;2023-05-18T00:59:00;9.40;11.10
6307;DHT22;3186;54.062;9.962;2023-05-18T01:01:32;9.40;11.20
6307;DHT22;3186;54.062;9.962;2023-05-18T01:04:02;9.30;10.90
6307;DHT22;3186;54.062;9.962;2023-05-18T01:06:31;9.30;12.00
6307;DHT22;3186;54.062;9.962;2023-05-18T01:09:05;9.30;11.00
6307;DHT22;3186;54.062;9.962;2023-05-18T01:11:52;9.20;11.00
6307;DHT22;3186;54.062;9.962;2023-05-18T01:28:31;9.00;13.10
6307;DHT22;3186;54.062;9.962;2023-05-18T01:30:58;9.00;12.60
6307;DHT22;3186;54.062;9.962;2023-05-18T01:33:24;8.90;12.60
6307;DHT22;3186;54.062;9.962;2023-05-18T01:35:50;8.80;13.40
6307;DHT22;3186;54.062;9.962;2023-05-18T01:38:19;8.80;13.40
6307;DHT22;3186;54.062;9.962;2023-05-18T01:41:09;8.80;13.50
6307;DHT22;3186;54.062;9.962;2023-05-18T01:43:38;8.70;13.60
6307;DHT22;3186;54.062;9.962;2023-05-18T01:46:34;8.70;13.90
6307;DHT22;3186;54.062;9.962;2023-05-18T01:51:52;8.60;14.60
6307;DHT22;3186;54.062;9.962;2023-05-18T01:54:20;7.60;14.10
6307;DHT22;3186;54.062;9.962;2023-05-18T01:56:47;8.50;15.30
6307;DHT22;3186;54.062;9.962;2023-05-18T01:59:14;8.50;15.50
6307;DHT22;3186;54.062;9.962;2023-05-18T02:01:40;8.50;16.20
6307;DHT22;3186;54.062;9.962;2023-05-18T02:04:08;8.50;16.20
6307;DHT22;3186;54.062;9.962;2023-05-18T02:06:34;8.40;16.70
6307;DHT22;3186;54.062;9.962;2023-05-18T02:09:02;8.40;17.00
6307;DHT22;3186;54.062;9.962;2023-05-18T02:11:29;8.40;18.20
6307;DHT22;3186;54.062;9.962;2023-05-18T02:13:55;8.40;17.30
6307;DHT22;3186;54.062;9.962;2023-05-18T02:16:21;8.40;18.50
6307;DHT22;3186;54.062;9.962;2023-05-18T02:18:47;8.30;18.20
6307;DHT22;3186;54.062;9.962;2023-05-18T02:21:13;8.30;18.80
6307;DHT22;3186;54.062;9.962;2023-05-18T02:23:40;8.30;18.70
6307;DHT22;3186;54.062;9.962;2023-05-18T02:26:06;8.30;19.40
6307;DHT22;3186;54.062;9.962;2023-05-18T02:28:32;8.30;19.60
6307;DHT22;3186;54.062;9.962;2023-05-18T02:31:09;8.30;20.40
6307;DHT22;3186;54.062;9.962;2023-05-18T02:33:39;8.30;20.30
6307;DHT22;3186;54.062;9.962;2023-05-18T02:36:12;8.20;21.00
6307;DHT22;3186;54.062;9.962;2023-05-18T02:38:39;8.20;21.50
6307;DHT22;3186;54.062;9.962;2023-05-18T02:41:07;8.20;22.50
6307;DHT22;3186;54.062;9.962;2023-05-18T02:43:33;8.20;21.90
6307;DHT22;3186;54.062;9.962;2023-05-18T02:45:59;8.20;22.30
6307;DHT22;3186;54.062;9.962;2023-05-18T02:48:27;8.20;22.40
6307;DHT22;3186;54.062;9.962;2023-05-18T02:50:53;8.20;23.00
6307;DHT22;3186;54.062;9.962;2023-05-18T02:53:28;8.20;22.90
6307;DHT22;3186;54.062;9.962;2023-05-18T02:56:00;8.10;24.00
6307;DHT22;3186;54.062;9.962;2023-05-18T02:58:41;8.10;24.30
6307;DHT22;3186;54.062;9.962;2023-05-18T03:01:21;8.10;25.00
6307;DHT22;3186;54.062;9.962;2023-05-18T03:03:55;8.10;24.60
6307;DHT22;3186;54.062;9.962;2023-05-18T03:06:25;8.10;25.00
6307;DHT22;3186;54.062;9.962;2023-05-18T03:08:52;8.10;25.60
6307;DHT22;3186;54.062;9.962;2023-05-18T03:11:25;8.10;26.10
6307;DHT22;3186;54.062;9.962;2023-05-18T03:13:51;8.10;26.10
6307;DHT22;3186;54.062;9.962;2023-05-18T03:16:17;8.10;27.40
6307;DHT22;3186;54.062;9.962;2023-05-18T03:18:45;8.10;27.30
6307;DHT22;3186;54.062;9.962;2023-05-18T03:21:11;8.10;27.50
6307;DHT22;3186;54.062;9.962;2023-05-18T03:23:38;8.10;27.60
6307;DHT22;3186;54.062;9.962;2023-05-18T03:26:05;8.10;27.70
6307;DHT22;3186;54.062;9.962;2023-05-18T03:28:37;8.10;27.70
6307;DHT22;3186;54.062;9.962;2023-05-18T03:31:03;8.10;27.70
6307;DHT22;3186;54.062;9.962;2023-05-18T03:33:30;8.10;28.10
6307;DHT22;3186;54.062;9.962;2023-05-18T03:35:58;8.10;27.80
6307;DHT22;3186;54.062;9.962;2023-05-18T03:38:24;8.10;28.40
6307;DHT22;3186;54.062;9.962;2023-05-18T03:40:57;8.10;28.70
6307;DHT22;3186;54.062;9.962;2023-05-18T03:43:23;8.10;29.30
6307;DHT22;3186;54.062;9.962;2023-05-18T03:45:54;8.10;28.90
6307;DHT22;3186;54.062;9.962;2023-05-18T03:48:22;8.10;28.70
6307;DHT22;3186;54.062;9.962;2023-05-18T03:50:49;8.10;30.00
6307;DHT22;3186;54.062;9.962;2023-05-18T03:53:15;8.10;29.90
6307;DHT22;3186;54.062;9.962;2023-05-18T03:55:47;8.10;30.30
6307;DHT22;3186;54.062;9.962;2023-05-18T03:58:16;8.10;30.30
6307;DHT22;3186;54.062;9.962;2023-05-18T04:00:46;8.10;31.40
6307;DHT22;3186;54.062;9.962;2023-05-18T04:03:12;8.10;31.50
6307;DHT22;3186;54.062;9.962;2023-05-18T04:05:40;8.10;31.70
6307;DHT22;3186;54.062;9.962;2023-05-18T04:08:08;8.10;31.90
6307;DHT22;3186;54.062;9.962;2023-05-18T04:10:35;8.10;33.10
6307;DHT22;3186;54.062;9.962;2023-05-18T04:13:01;8.10;32.90
6307;DHT22;3186;54.062;9.962;2023-05-18T04:15:27;8.10;32.60
6307;DHT22;3186;54.062;9.962;2023-05-18T04:17:53;8.10;33.50
6307;DHT22;3186;54.062;9.962;2023-05-18T04:20:19;8.10;33.80
6307;DHT22;3186;54.062;9.962;2023-05-18T04:22:46;8.20;34.00
6307;DHT22;3186;54.062;9.962;2023-05-18T04:25:16;8.20;34.10
6307;DHT22;3186;54.062;9.962;2023-05-18T04:27:43;8.20;34.90
6307;DHT22;3186;54.062;9.962;2023-05-18T04:30:12;8.20;34.70
6307;DHT22;3186;54.062;9.962;2023-05-18T04:32:40;8.20;34.20
6307;DHT22;3186;54.062;9.962;2023-05-18T04:35:08;8.30;34.90
6307;DHT22;3186;54.062;9.962;2023-05-18T04:37:35;8.20;34.70
6307;DHT22;3186;54.062;9.962;2023-05-18T04:40:07;8.20;34.60
6307;DHT22;3186;54.062;9.962;2023-05-18T04:42:38;8.30;33.90
6307;DHT22;3186;54.062;9.962;2023-05-18T04:45:14;8.30;34.00
6307;DHT22;3186;54.062;9.962;2023-05-18T04:47:44;8.30;33.70
6307;DHT22;3186;54.062;9.962;2023-05-18T04:50:13;8.30;32.90
6307;DHT22;3186;54.062;9.962;2023-05-18T04:52:41;8.30;33.30
6307;DHT22;3186;54.062;9.962;2023-05-18T04:55:13;8.30;33.70
6307;DHT22;3186;54.062;9.962;2023-05-18T04:57:39;8.40;33.10
6307;DHT22;3186;54.062;9.962;2023-05-18T05:00:05;8.40;32.60
6307;DHT22;3186;54.062;9.962;2023-05-18T05:02:34;8.40;33.90
6307;DHT22;3186;54.062;9.962;2023-05-18T05:05:00;8.40;33.60
6307;DHT22;3186;54.062;9.962;2023-05-18T05:07:27;8.50;33.60
6307;DHT22;3186;54.062;9.962;2023-05-18T05:09:53;8.50;32.90
6307;DHT22;3186;54.062;9.962;2023-05-18T05:12:19;8.50;32.50
6307;DHT22;3186;54.062;9.962;2023-05-18T05:14:45;8.60;32.70
6307;DHT22;3186;54.062;9.962;2023-05-18T05:17:10;8.60;32.90
6307;DHT22;3186;54.062;9.962;2023-05-18T05:19:37;8.60;44.30
6307;DHT22;3186;54.062;9.962;2023-05-18T05:22:04;8.60;35.50
6307;DHT22;3186;54.062;9.962;2023-05-18T05:24:29;8.70;33.90
6307;DHT22;3186;54.062;9.962;2023-05-18T05:26:55;8.30;35.10
6307;DHT22;3186;54.062;9.962;2023-05-18T05:29:21;8.80;33.20
6307;DHT22;3186;54.062;9.962;2023-05-18T05:31:47;8.70;34.20
6307;DHT22;3186;54.062;9.962;2023-05-18T05:34:13;8.80;32.70
6307;DHT22;3186;54.062;9.962;2023-05-18T05:36:39;8.80;41.60
6307;DHT22;3186;54.062;9.962;2023-05-18T05:39:05;8.80;33.70
6307;DHT22;3186;54.062;9.962;2023-05-18T05:41:31;8.90;37.20
6307;DHT22;3186;54.062;9.962;2023-05-18T05:43:57;9.00;32.10
6307;DHT22;3186;54.062;9.962;2023-05-18T05:46:23;9.00;32.90
6307;DHT22;3186;54.062;9.962;2023-05-18T05:48:49;9.10;31.90
6307;DHT22;3186;54.062;9.962;2023-05-18T05:51:16;9.10;30.40
6307;DHT22;3186;54.062;9.962;2023-05-18T05:53:42;9.10;30.90
6307;DHT22;3186;54.062;9.962;2023-05-18T05:56:09;9.10;29.40
6307;DHT22;3186;54.062;9.962;2023-05-18T05:58:38;9.20;31.10
6307;DHT22;3186;54.062;9.962;2023-05-18T06:01:04;9.20;29.90
6307;DHT22;3186;54.062;9.962;2023-05-18T06:03:30;9.30;28.50
6307;DHT22;3186;54.062;9.962;2023-05-18T06:05:59;9.30;29.50
6307;DHT22;3186;54.062;9.962;2023-05-18T06:08:26;9.30;28.50
6307;DHT22;3186;54.062;9.962;2023-05-18T06:10:54;9.40;28.50
6307;DHT22;3186;54.062;9.962;2023-05-18T06:13:20;9.40;32.60
6307;DHT22;3186;54.062;9.962;2023-05-18T06:15:56;9.50;28.70
6307;DHT22;3186;54.062;9.962;2023-05-18T06:18:23;9.40;26.90
6307;DHT22;3186;54.062;9.962;2023-05-18T06:20:50;9.50;28.70
6307;DHT22;3186;54.062;9.962;2023-05-18T06:23:18;9.60;27.30
6307;DHT22;3186;54.062;9.962;2023-05-18T06:26:07;9.60;26.60
6307;DHT22;3186;54.062;9.962;2023-05-18T06:28:51;9.70;25.20
6307;DHT22;3186;54.062;9.962;2023-05-18T06:31:23;9.70;24.80
6307;DHT22;3186;54.062;9.962;2023-05-18T06:33:54;9.80;24.90
6307;DHT22;3186;54.062;9.962;2023-05-18T06:36:20;9.80;25.20
6307;DHT22;3186;54.062;9.962;2023-05-18T06:38:46;9.90;25.70
6307;DHT22;3186;54.062;9.962;2023-05-18T06:41:12;9.90;22.80
6307;DHT22;3186;54.062;9.962;2023-05-18T06:43:38;9.90;22.90
6307;DHT22;3186;54.062;9.962;2023-05-18T06:46:23;10.00;22.40
6307;DHT22;3186;54.062;9.962;2023-05-18T06:48:55;10.10;21.30
6307;DHT22;3186;54.062;9.962;2023-05-18T06:51:21;10.10;19.80
6307;DHT22;3186;54.062;9.962;2023-05-18T06:53:47;10.20;24.70
6307;DHT22;3186;54.062;9.962;2023-05-18T06:56:14;10.20;20.60
6307;DHT22;3186;54.062;9.962;2023-05-18T06:58:43;10.40;19.60
6307;DHT22;3186;54.062;9.962;2023-05-18T07:01:10;10.10;20.60
6307;DHT22;3186;54.062;9.962;2023-05-18T07:03:36;10.20;20.40
6307;DHT22;3186;54.062;9.962;2023-05-18T07:06:03;10.20;20.30
6307;DHT22;3186;54.062;9.962;2023-05-18T07:08:29;10.40;21.90
6307;DHT22;3186;54.062;9.962;2023-05-18T07:10:56;10.50;19.50
6307;DHT22;3186;54.062;9.962;2023-05-18T07:13:23;10.60;21.10
6307;DHT22;3186;54.062;9.962;2023-05-18T07:15:49;10.60;19.30
6307;DHT22;3186;54.062;9.962;2023-05-18T07:18:15;10.80;16.70
6307;DHT22;3186;54.062;9.962;2023-05-18T07:20:41;10.90;18.10
6307;DHT22;3186;54.062;9.962;2023-05-18T07:23:06;10.90;18.30
6307;DHT22;3186;54.062;9.962;2023-05-18T07:25:32;10.80;15.40
6307;DHT22;3186;54.062;9.962;2023-05-18T07:27:58;10.80;14.10
6307;DHT22;3186;54.062;9.962;2023-05-18T07:30:24;10.80;15.50
6307;DHT22;3186;54.062;9.962;2023-05-18T07:32:51;11.00;15.80
6307;DHT22;3186;54.062;9.962;2023-05-18T07:35:17;10.90;13.10
6307;DHT22;3186;54.062;9.962;2023-05-18T07:37:46;10.90;13.60
6307;DHT22;3186;54.062;9.962;2023-05-18T07:40:12;11.00;16.00
6307;DHT22;3186;54.062;9.962;2023-05-18T07:42:39;11.30;18.80
6307;DHT22;3186;54.062;9.962;2023-05-18T07:45:06;11.40;12.10
6307;DHT22;3186;54.062;9.962;2023-05-18T07:47:32;11.50;19.50
6307;DHT22;3186;54.062;9.962;2023-05-18T07:49:58;11.80;16.00
6307;DHT22;3186;54.062;9.962;2023-05-18T07:52:24;12.10;17.50
6307;DHT22;3186;54.062;9.962;2023-05-18T07:54:54;11.60;8.50
6307;DHT22;3186;54.062;9.962;2023-05-18T07:57:21;11.90;11.50
6307;DHT22;3186;54.062;9.962;2023-05-18T07:59:47;12.20;12.70
6307;DHT22;3186;54.062;9.962;2023-05-18T08:02:13;11.80;11.20
6307;DHT22;3186;54.062;9.962;2023-05-18T08:04:41;12.00;6.60
6307;DHT22;3186;54.062;9.962;2023-05-18T08:07:06;12.20;13.00
6307;DHT22;3186;54.062;9.962;2023-05-18T08:09:33;12.20;7.90
6307;DHT22;3186;54.062;9.962;2023-05-18T08:11:59;12.50;14.50
6307;DHT22;3186;54.062;9.962;2023-05-18T08:14:25;12.50;6.80
6307;DHT22;3186;54.062;9.962;2023-05-18T08:16:51;13.00;9.30
6307;DHT22;3186;54.062;9.962;2023-05-18T08:19:17;13.20;10.00
6307;DHT22;3186;54.062;9.962;2023-05-18T08:21:42;13.50;2.70
6307;DHT22;3186;54.062;9.962;2023-05-18T08:24:10;13.10;4.10
6307;DHT22;3186;54.062;9.962;2023-05-18T08:26:36;13.50;1.00
6307;DHT22;3186;54.062;9.962;2023-05-18T08:29:02;13.70;1.50
6307;DHT22;3186;54.062;9.962;2023-05-18T08:31:35;13.50;2.10
6307;DHT22;3186;54.062;9.962;2023-05-18T08:34:02;13.90;1.00
6307;DHT22;3186;54.062;9.962;2023-05-18T08:36:30;13.50;1.00
6307;DHT22;3186;54.062;9.962;2023-05-18T08:38:56;13.20;1.00
6307;DHT22;3186;54.062;9.962;2023-05-18T08:41:27;13.00;1.00
6307;DHT22;3186;54.062;9.962;2023-05-18T08:44:05;13.50;7.60
6307;DHT22;3186;54.062;9.962;2023-05-18T08:46:37;14.30;15.70
6307;DHT22;3186;54.062;9.962;2023-05-18T08:49:04;14.90;11.70
6307;DHT22;3186;54.062;9.962;2023-05-18T08:51:33;15.10;8.20
6307;DHT22;3186;54.062;9.962;2023-05-18T08:54:00;15.20;1.00
6307;DHT22;3186;54.062;9.962;2023-05-18T08:56:30;15.50;1.00
6307;DHT22;3186;54.062;9.962;2023-05-18T08:58:57;15.40;1.00
6307;DHT22;3186;54.062;9.962;2023-05-18T09:01:26;15.50;1.00
6307;DHT22;3186;54.062;9.962;2023-05-18T09:03:56;15.50;1.00
6307;DHT22;3186;54.062;9.962;2023-05-18T09:06:23;15.70;1.00
6307;DHT22;3186;54.062;9.962;2023-05-18T09:08:51;16.10;1.00
6307;DHT22;3186;54.062;9.962;2023-05-18T09:11:17;16.30;1.00
6307;DHT22;3186;54.062;9.962;2023-05-18T09:13:44;15.90;2.20
6307;DHT22;3186;54.062;9.962;2023-05-18T09:16:10;16.00;1.00
6307;DHT22;3186;54.062;9.962;2023-05-18T09:18:36;16.70;1.00
6307;DHT22;3186;54.062;9.962;2023-05-18T09:21:02;16.30;1.00
6307;DHT22;3186;54.062;9.962;2023-05-18T09:23:29;15.60;1.00
6307;DHT22;3186;54.062;9.962;2023-05-18T09:25:55;17.00;1.00
6307;DHT22;3186;54.062;9.962;2023-05-18T09:28:34;16.90;1.00
6307;DHT22;3186;54.062;9.962;2023-05-18T09:31:00;17.50;1.00
6307;DHT22;3186;54.062;9.962;2023-05-18T09:33:32;18.10;1.00
6307;DHT22;3186;54.062;9.962;2023-05-18T09:36:02;17.70;1.00
6307;DHT22;3186;54.062;9.962;2023-05-18T09:38:28;18.30;1.00
6307;DHT22;3186;54.062;9.962;2023-05-18T09:40:54;18.60;1.00
6307;DHT22;3186;54.062;9.962;2023-05-18T09:43:20;18.90;1.00
6307;DHT22;3186;54.062;9.962;2023-05-18T09:45:48;19.40;1.00
6307;DHT22;3186;54.062;9.962;2023-05-18T09:48:14;19.20;1.00
6307;DHT22;3186;54.062;9.962;2023-05-18T09:50:42;18.20;1.00
6307;DHT22;3186;54.062;9.962;2023-05-18T09:53:09;17.90;1.00
6307;DHT22;3186;54.062;9.962;2023-05-18T09:55:46;18.60;1.00
6307;DHT22;3186;54.062;9.962;2023-05-18T09:58:13;18.50;1.00
6307;DHT22;3186;54.062;9.962;2023-05-18T10:00:46;18.60;1.00
6307;DHT22;3186;54.062;9.962;2023-05-18T10:05:43;19.60;1.00
6307;DHT22;3186;54.062;9.962;2023-05-18T10:08:11;19.10;1.00
6307;DHT22;3186;54.062;9.962;2023-05-18T10:10:38;19.40;1.00
6307;DHT22;3186;54.062;9.962;2023-05-18T10:13:05;20.00;1.00
6307;DHT22;3186;54.062;9.962;2023-05-18T10:15:31;19.20;1.00
6307;DHT22;3186;54.062;9.962;2023-05-18T10:17:58;19.20;1.00
6307;DHT22;3186;54.062;9.962;2023-05-18T10:20:25;19.80;1.00
6307;DHT22;3186;54.062;9.962;2023-05-18T10:22:54;20.40;1.00
6307;DHT22;3186;54.062;9.962;2023-05-18T10:25:22;20.80;1.00
6307;DHT22;3186;54.062;9.962;2023-05-18T10:27:55;21.10;1.00
6307;DHT22;3186;54.062;9.962;2023-05-18T10:30:21;20.70;1.00
6307;DHT22;3186;54.062;9.962;2023-05-18T10:32:48;20.90;1.00
6307;DHT22;3186;54.062;9.962;2023-05-18T10:35:15;21.20;1.00
6307;DHT22;3186;54.062;9.962;2023-05-18T10:37:44;21.60;1.00
6307;DHT22;3186;54.062;9.962;2023-05-18T10:40:13;21.70;1.00
6307;DHT22;3186;54.062;9.962;2023-05-18T10:42:40;21.70;1.00
6307;DHT22;3186;54.062;9.962;2023-05-18T10:45:08;20.80;1.00
6307;DHT22;3186;54.062;9.962;2023-05-18T10:47:35;20.50;1.00
6307;DHT22;3186;54.062;9.962;2023-05-18T10:50:05;20.40;1.00
6307;DHT22;3186;54.062;9.962;2023-05-18T10:52:31;20.80;1.00
6307;DHT22;3186;54.062;9.962;2023-05-18T10:54:58;20.70;1.00
6307;DHT22;3186;54.062;9.962;2023-05-18T10:57:29;21.10;1.00
6307;DHT22;3186;54.062;9.962;2023-05-18T10:59:58;21.10;1.00
6307;DHT22;3186;54.062;9.962;2023-05-18T11:02:25;21.20;1.00
6307;DHT22;3186;54.062;9.962;2023-05-18T11:04:52;20.50;1.00
6307;DHT22;3186;54.062;9.962;2023-05-18T11:07:19;20.60;1.00
6307;DHT22;3186;54.062;9.962;2023-05-18T11:09:47;21.70;1.00
6307;DHT22;3186;54.062;9.962;2023-05-18T11:12:15;22.00;1.00
6307;DHT22;3186;54.062;9.962;2023-05-18T11:15:00;22.10;1.00
6307;DHT22;3186;54.062;9.962;2023-05-18T11:17:29;22.80;1.00
6307;DHT22;3186;54.062;9.962;2023-05-18T11:28:09;22.10;1.00
6307;DHT22;3186;54.062;9.962;2023-05-18T11:47:03;23.60;1.00
6307;DHT22;3186;54.062;9.962;2023-05-18T11:49:45;24.00;1.00
6307;DHT22;3186;54.062;9.962;2023-05-18T11:52:22;24.00;1.00
6307;DHT22;3186;54.062;9.962;2023-05-18T11:57:38;24.40;1.00
6307;DHT22;3186;54.062;9.962;2023-05-18T12:00:08;24.00;1.00
6307;DHT22;3186;54.062;9.962;2023-05-18T12:02:42;22.90;1.00
6307;DHT22;3186;54.062;9.962;2023-05-18T12:05:09;23.60;1.00
6307;DHT22;3186;54.062;9.962;2023-05-18T12:07:36;24.10;1.00
6307;DHT22;3186;54.062;9.962;2023-05-18T12:10:15;24.30;1.00
6307;DHT22;3186;54.062;9.962;2023-05-18T12:12:41;24.40;1.00
6307;DHT22;3186;54.062;9.962;2023-05-18T12:15:09;22.90;1.00
6307;DHT22;3186;54.062;9.962;2023-05-18T12:20:10;23.20;1.00
6307;DHT22;3186;54.062;9.962;2023-05-18T12:22:40;23.60;1.00
6307;DHT22;3186;54.062;9.962;2023-05-18T12:25:07;24.50;1.00
6307;DHT22;3186;54.062;9.962;2023-05-18T12:27:40;24.10;1.00
6307;DHT22;3186;54.062;9.962;2023-05-18T12:30:18;24.80;1.00
6307;DHT22;3186;54.062;9.962;2023-05-18T12:32:50;24.40;1.00
6307;DHT22;3186;54.062;9.962;2023-05-18T12:35:16;24.30;1.00
6307;DHT22;3186;54.062;9.962;2023-05-18T12:37:46;24.10;1.00
6307;DHT22;3186;54.062;9.962;2023-05-18T12:40:13;24.00;1.00
6307;DHT22;3186;54.062;9.962;2023-05-18T12:42:56;24.00;1.00
6307;DHT22;3186;54.062;9.962;2023-05-18T12:45:31;24.00;1.00
6307;DHT22;3186;54.062;9.962;2023-05-18T12:48:04;23.50;1.00
6307;DHT22;3186;54.062;9.962;2023-05-18T12:50:30;23.20;1.00
6307;DHT22;3186;54.062;9.962;2023-05-18T12:52:56;23.30;1.00
6307;DHT22;3186;54.062;9.962;2023-05-18T12:55:23;23.30;1.00
6307;DHT22;3186;54.062;9.962;2023-05-18T13:00:25;24.90;1.00
6307;DHT22;3186;54.062;9.962;2023-05-18T13:02:50;25.00;1.00
6307;DHT22;3186;54.062;9.962;2023-05-18T13:05:22;24.20;1.00
6307;DHT22;3186;54.062;9.962;2023-05-18T13:07:48;24.90;1.00
6307;DHT22;3186;54.062;9.962;2023-05-18T13:10:16;24.80;1.00
6307;DHT22;3186;54.062;9.962;2023-05-18T13:12:48;24.50;1.00
6307;DHT22;3186;54.062;9.962;2023-05-18T13:15:22;24.20;1.00
6307;DHT22;3186;54.062;9.962;2023-05-18T13:17:58;23.80;1.00
6307;DHT22;3186;54.062;9.962;2023-05-18T13:20:49;24.60;1.00
6307;DHT22;3186;54.062;9.962;2023-05-18T13:23:20;24.60;1.00
6307;DHT22;3186;54.062;9.962;2023-05-18T13:25:47;23.60;1.00
6307;DHT22;3186;54.062;9.962;2023-05-18T13:28:14;23.60;1.00
6307;DHT22;3186;54.062;9.962;2023-05-18T13:30:41;23.70;1.00
6307;DHT22;3186;54.062;9.962;2023-05-18T13:33:07;23.40;1.00
6307;DHT22;3186;54.062;9.962;2023-05-18T13:35:38;23.60;1.00
6307;DHT22;3186;54.062;9.962;2023-05-18T13:38:05;24.20;1.00
6307;DHT22;3186;54.062;9.962;2023-05-18T13:40:31;24.50;1.00
6307;DHT22;3186;54.062;9.962;2023-05-18T13:42:56;24.40;1.00
6307;DHT22;3186;54.062;9.962;2023-05-18T13:45:22;23.90;1.00
6307;DHT22;3186;54.062;9.962;2023-05-18T13:47:49;24.20;1.00
6307;DHT22;3186;54.062;9.962;2023-05-18T13:50:16;23.90;1.00
6307;DHT22;3186;54.062;9.962;2023-05-18T13:52:42;24.50;1.00
6307;DHT22;3186;54.062;9.962;2023-05-18T13:55:08;24.20;1.00
6307;DHT22;3186;54.062;9.962;2023-05-18T13:57:34;24.30;1.00
6307;DHT22;3186;54.062;9.962;2023-05-18T14:00:01;24.30;1.00
6307;DHT22;3186;54.062;9.962;2023-05-18T14:02:42;24.20;1.00
6307;DHT22;3186;54.062;9.962;2023-05-18T14:05:09;23.80;1.00
6307;DHT22;3186;54.062;9.962;2023-05-18T14:07:42;24.30;1.00
6307;DHT22;3186;54.062;9.962;2023-05-18T14:10:09;24.30;1.00
6307;DHT22;3186;54.062;9.962;2023-05-18T14:12:36;24.70;1.00
6307;DHT22;3186;54.062;9.962;2023-05-18T14:15:02;24.30;1.00
6307;DHT22;3186;54.062;9.962;2023-05-18T14:17:29;24.10;1.00
6307;DHT22;3186;54.062;9.962;2023-05-18T14:19:56;24.20;1.00
6307;DHT22;3186;54.062;9.962;2023-05-18T14:22:22;24.90;1.00
6307;DHT22;3186;54.062;9.962;2023-05-18T14:24:48;24.90;1.00
6307;DHT22;3186;54.062;9.962;2023-05-18T14:27:14;24.90;1.00
6307;DHT22;3186;54.062;9.962;2023-05-18T14:29:40;24.40;1.00
6307;DHT22;3186;54.062;9.962;2023-05-18T14:32:06;24.50;1.00
6307;DHT22;3186;54.062;9.962;2023-05-18T14:34:32;24.30;1.00
6307;DHT22;3186;54.062;9.962;2023-05-18T14:36:58;24.10;1.00
6307;DHT22;3186;54.062;9.962;2023-05-18T14:39:24;24.20;1.00
6307;DHT22;3186;54.062;9.962;2023-05-18T14:41:50;24.20;1.00
6307;DHT22;3186;54.062;9.962;2023-05-18T14:44:16;24.20;1.00
6307;DHT22;3186;54.062;9.962;2023-05-18T14:46:42;24.50;1.00
6307;DHT22;3186;54.062;9.962;2023-05-18T14:49:08;24.60;1.00
6307;DHT22;3186;54.062;9.962;2023-05-18T14:51:34;24.80;1.00
6307;DHT22;3186;54.062;9.962;2023-05-18T14:53:59;24.90;1.00
6307;DHT22;3186;54.062;9.962;2023-05-18T14:56:25;24.90;1.00
6307;DHT22;3186;54.062;9.962;2023-05-18T14:58:52;24.90;1.00
6307;DHT22;3186;54.062;9.962;2023-05-18T15:01:17;24.80;1.00
6307;DHT22;3186;54.062;9.962;2023-05-18T15:03:43;25.00;1.00
6307;DHT22;3186;54.062;9.962;2023-05-18T15:06:09;24.60;1.00
6307;DHT22;3186;54.062;9.962;2023-05-18T15:08:35;24.50;1.00
6307;DHT22;3186;54.062;9.962;2023-05-18T15:11:01;24.40;1.00
6307;DHT22;3186;54.062;9.962;2023-05-18T15:13:27;24.50;1.00
6307;DHT22;3186;54.062;9.962;2023-05-18T15:15:52;24.60;1.00
6307;DHT22;3186;54.062;9.962;2023-05-18T15:18:19;24.80;1.00
6307;DHT22;3186;54.062;9.962;2023-05-18T15:20:45;24.70;1.00
6307;DHT22;3186;54.062;9.962;2023-05-18T15:23:11;24.90;1.00
6307;DHT22;3186;54.062;9.962;2023-05-18T15:25:38;24.40;1.00
6307;DHT22;3186;54.062;9.962;2023-05-18T15:28:05;24.60;1.00
6307;DHT22;3186;54.062;9.962;2023-05-18T15:30:31;24.80;1.00
6307;DHT22;3186;54.062;9.962;2023-05-18T15:32:58;24.50;1.00
6307;DHT22;3186;54.062;9.962;2023-05-18T15:35:27;24.70;1.00
6307;DHT22;3186;54.062;9.962;2023-05-18T15:37:53;24.80;1.00
6307;DHT22;3186;54.062;9.962;2023-05-18T15:40:19;24.80;1.00
6307;DHT22;3186;54.062;9.962;2023-05-18T15:42:45;24.80;1.00
6307;DHT22;3186;54.062;9.962;2023-05-18T15:45:11;24.70;1.00
6307;DHT22;3186;54.062;9.962;2023-05-18T15:47:37;24.70;1.00
6307;DHT22;3186;54.062;9.962;2023-05-18T15:50:03;24.80;1.00
6307;DHT22;3186;54.062;9.962;2023-05-18T15:52:29;24.70;1.00
6307;DHT22;3186;54.062;9.962;2023-05-18T15:54:55;24.80;1.00
6307;DHT22;3186;54.062;9.962;2023-05-18T15:57:20;24.60;1.00
6307;DHT22;3186;54.062;9.962;2023-05-18T15:59:47;24.50;1.00
6307;DHT22;3186;54.062;9.962;2023-05-18T16:02:13;24.60;1.00
6307;DHT22;3186;54.062;9.962;2023-05-18T16:04:39;24.60;1.00
6307;DHT22;3186;54.062;9.962;2023-05-18T16:07:05;24.80;1.00
6307;DHT22;3186;54.062;9.962;2023-05-18T16:09:31;24.70;1.00
6307;DHT22;3186;54.062;9.962;2023-05-18T16:11:57;24.80;1.00
6307;DHT22;3186;54.062;9.962;2023-05-18T16:14:23;24.80;1.00
6307;DHT22;3186;54.062;9.962;2023-05-18T16:16:48;24.80;1.00
6307;DHT22;3186;54.062;9.962;2023-05-18T16:19:14;24.60;1.00
6307;DHT22;3186;54.062;9.962;2023-05-18T16:21:43;24.50;1.00
6307;DHT22;3186;54.062;9.962;2023-05-18T16:24:09;24.90;1.00
6307;DHT22;3186;54.062;9.962;2023-05-18T16:26:35;24.90;1.00
6307;DHT22;3186;54.062;9.962;2023-05-18T16:29:02;25.00;1.00
6307;DHT22;3186;54.062;9.962;2023-05-18T16:31:31;24.90;1.00
6307;DHT22;3186;54.062;9.962;2023-05-18T16:33:57;24.80;1.00
6307;DHT22;3186;54.062;9.962;2023-05-18T16:36:23;24.80;1.00
6307;DHT22;3186;54.062;9.962;2023-05-18T16:38:49;24.80;1.00
6307;DHT22;3186;54.062;9.962;2023-05-18T16:41:15;24.90;1.00
6307;DHT22;3186;54.062;9.962;2023-05-18T16:43:41;24.80;1.00
6307;DHT22;3186;54.062;9.962;2023-05-18T16:46:09;24.60;1.00
6307;DHT22;3186;54.062;9.962;2023-05-18T16:48:35;24.70;1.00
6307;DHT22;3186;54.062;9.962;2023-05-18T16:51:01;24.30;1.00
6307;DHT22;3186;54.062;9.962;2023-05-18T16:53:34;24.30;1.00
6307;DHT22;3186;54.062;9.962;2023-05-18T16:56:00;24.30;1.00
6307;DHT22;3186;54.062;9.962;2023-05-18T16:58:26;24.40;1.00
6307;DHT22;3186;54.062;9.962;2023-05-18T17:00:52;24.40;1.00
6307;DHT22;3186;54.062;9.962;2023-05-18T17:03:18;24.40;1.00
6307;DHT22;3186;54.062;9.962;2023-05-18T17:05:44;24.30;1.00
6307;DHT22;3186;54.062;9.962;2023-05-18T17:08:11;24.30;1.00
6307;DHT22;3186;54.062;9.962;2023-05-18T17:10:37;24.20;1.00
6307;DHT22;3186;54.062;9.962;2023-05-18T17:13:04;24.30;1.00